sensor_id;sensor_type;location;lat;lon;timestamp;temperature;humidity
61398;DHT22;47267;48.130;-2.040;2023-09-19T00:01:33;23.30;61.80
61398;DHT22;47267;48.130;-2.040;2023-09-19T00:03:58;23.30;61.80
61398;DHT22;47267;48.130;-2.040;2023-09-19T00:06:24;23.30;61.80
61398;DHT22;47267;48.130;-2.040;2023-09-19T00:08:52;23.30;61.80
61398;DHT22;47267;48.130;-2.040;2023-09-19T00:11:17;23.20;61.80
61398;DHT22;47267;48.130;-2.040;2023-09-19T00:13:43;23.30;61.90
61398;DHT22;47267;48.130;-2.040;2023-09-19T00:16:10;23.20;61.80
61398;DHT22;47267;48.130;-2.040;2023-09-19T00:18:37;23.20;61.80
61398;DHT22;47267;48.130;-2.040;2023-09-19T00:21:03;23.20;61.80
61398;DHT22;47267;48.130;-2.040;2023-09-19T00:23:32;23.20;61.70
61398;DHT22;47267;48.130;-2.040;2023-09-19T00:25:59;23.20;61.80
61398;DHT22;47267;48.130;-2.040;2023-09-19T00:28:25;23.20;61.80
61398;DHT22;47267;48.130;-2.040;2023-09-19T00:30:51;23.10;61.80
61398;DHT22;47267;48.130;-2.040;2023-09-19T00:33:20;23.10;61.70
61398;DHT22;47267;48.130;-2.040;2023-09-19T00:38:14;23.10;61.70
61398;DHT22;47267;48.130;-2.040;2023-09-19T00:40:45;23.10;61.70
61398;DHT22;47267;48.130;-2.040;2023-09-19T00:43:11;23.10;61.70
61398;DHT22;47267;48.130;-2.040;2023-09-19T00:45:37;23.10;61.60
61398;DHT22;47267;48.130;-2.040;2023-09-19T00:48:07;23.10;61.70
61398;DHT22;47267;48.130;-2.040;2023-09-19T00:50:35;23.10;61.70
61398;DHT22;47267;48.130;-2.040;2023-09-19T00:53:01;23.00;61.60
61398;DHT22;47267;48.130;-2.040;2023-09-19T00:55:34;23.00;61.60
61398;DHT22;47267;48.130;-2.040;2023-09-19T00:58:00;23.00;61.60
61398;DHT22;47267;48.130;-2.040;2023-09-19T01:00:26;23.00;61.60
61398;DHT22;47267;48.130;-2.040;2023-09-19T01:02:52;23.00;61.60
61398;DHT22;47267;48.130;-2.040;2023-09-19T01:05:18;23.00;61.60
61398;DHT22;47267;48.130;-2.040;2023-09-19T01:07:44;23.00;61.60
61398;DHT22;47267;48.130;-2.040;2023-09-19T01:10:13;23.00;61.60
61398;DHT22;47267;48.130;-2.040;2023-09-19T01:25:59;22.90;62.10
61398;DHT22;47267;48.130;-2.040;2023-09-19T01:29:00;22.90;61.50
61398;DHT22;47267;48.130;-2.040;2023-09-19T01:31:31;22.90;61.50
61398;DHT22;47267;48.130;-2.040;2023-09-19T01:34:02;22.80;61.40
61398;DHT22;47267;48.130;-2.040;2023-09-19T01:36:34;22.80;61.40
61398;DHT22;47267;48.130;-2.040;2023-09-19T01:39:06;22.80;61.40
61398;DHT22;47267;48.130;-2.040;2023-09-19T01:44:15;22.80;61.30
61398;DHT22;47267;48.130;-2.040;2023-09-19T01:46:44;22.70;61.40
61398;DHT22;47267;48.130;-2.040;2023-09-19T01:49:18;22.70;61.40
61398;DHT22;47267;48.130;-2.040;2023-09-19T01:52:04;22.70;61.40
61398;DHT22;47267;48.130;-2.040;2023-09-19T01:54:36;22.70;61.40
61398;DHT22;47267;48.130;-2.040;2023-09-19T01:57:12;22.70;61.30
61398;DHT22;47267;48.130;-2.040;2023-09-19T01:59:50;22.70;61.30
61398;DHT22;47267;48.130;-2.040;2023-09-19T02:02:18;22.70;61.30
61398;DHT22;47267;48.130;-2.040;2023-09-19T02:04:47;22.70;61.30
61398;DHT22;47267;48.130;-2.040;2023-09-19T02:07:13;22.70;61.40
61398;DHT22;47267;48.130;-2.040;2023-09-19T02:09:42;22.60;61.30
61398;DHT22;47267;48.130;-2.040;2023-09-19T02:12:09;22.60;61.30
61398;DHT22;47267;48.130;-2.040;2023-09-19T02:14:35;22.60;61.30
61398;DHT22;47267;48.130;-2.040;2023-09-19T02:17:02;22.60;61.30
61398;DHT22;47267;48.130;-2.040;2023-09-19T02:19:30;22.60;61.30
61398;DHT22;47267;48.130;-2.040;2023-09-19T02:21:58;22.60;61.30
61398;DHT22;47267;48.130;-2.040;2023-09-19T02:24:23;22.60;61.30
61398;DHT22;47267;48.130;-2.040;2023-09-19T02:26:49;22.60;61.30
61398;DHT22;47267;48.130;-2.040;2023-09-19T02:29:15;22.60;61.30
61398;DHT22;47267;48.130;-2.040;2023-09-19T02:31:41;22.50;61.20
61398;DHT22;47267;48.130;-2.040;2023-09-19T02:34:08;22.60;61.30
61398;DHT22;47267;48.130;-2.040;2023-09-19T02:36:34;22.50;61.20
61398;DHT22;47267;48.130;-2.040;2023-09-19T02:39:00;22.50;61.20
61398;DHT22;47267;48.130;-2.040;2023-09-19T02:41:25;22.50;61.20
61398;DHT22;47267;48.130;-2.040;2023-09-19T02:43:51;22.50;61.20
61398;DHT22;47267;48.130;-2.040;2023-09-19T02:46:17;22.50;61.20
61398;DHT22;47267;48.130;-2.040;2023-09-19T02:48:43;22.50;61.20
61398;DHT22;47267;48.130;-2.040;2023-09-19T02:51:09;22.50;61.20
61398;DHT22;47267;48.130;-2.040;2023-09-19T02:53:34;22.50;61.20
61398;DHT22;47267;48.130;-2.040;2023-09-19T02:56:01;22.50;61.20
61398;DHT22;47267;48.130;-2.040;2023-09-19T02:58:27;22.40;61.20
61398;DHT22;47267;48.130;-2.040;2023-09-19T03:00:55;22.40;61.20
61398;DHT22;47267;48.130;-2.040;2023-09-19T03:03:21;22.40;61.10
61398;DHT22;47267;48.130;-2.040;2023-09-19T03:05:48;22.40;61.10
61398;DHT22;47267;48.130;-2.040;2023-09-19T03:08:14;22.40;61.10
61398;DHT22;47267;48.130;-2.040;2023-09-19T03:10:45;22.40;61.10
61398;DHT22;47267;48.130;-2.040;2023-09-19T03:13:11;22.40;61.10
61398;DHT22;47267;48.130;-2.040;2023-09-19T03:15:41;22.40;61.10
61398;DHT22;47267;48.130;-2.040;2023-09-19T03:18:09;22.40;61.10
61398;DHT22;47267;48.130;-2.040;2023-09-19T03:20:34;22.30;61.10
61398;DHT22;47267;48.130;-2.040;2023-09-19T03:23:00;22.30;61.10
61398;DHT22;47267;48.130;-2.040;2023-09-19T03:25:26;22.30;61.10
61398;DHT22;47267;48.130;-2.040;2023-09-19T03:27:51;22.30;61.10
61398;DHT22;47267;48.130;-2.040;2023-09-19T03:30:17;22.30;61.10
61398;DHT22;47267;48.130;-2.040;2023-09-19T03:32:47;22.30;61.10
61398;DHT22;47267;48.130;-2.040;2023-09-19T03:35:15;22.30;61.10
61398;DHT22;47267;48.130;-2.040;2023-09-19T03:37:42;22.30;61.10
61398;DHT22;47267;48.130;-2.040;2023-09-19T03:40:09;22.30;61.10
61398;DHT22;47267;48.130;-2.040;2023-09-19T03:42:38;22.20;61.00
61398;DHT22;47267;48.130;-2.040;2023-09-19T03:45:05;22.20;61.00
61398;DHT22;47267;48.130;-2.040;2023-09-19T03:47:31;22.20;61.10
61398;DHT22;47267;48.130;-2.040;2023-09-19T03:49:57;22.20;61.00
61398;DHT22;47267;48.130;-2.040;2023-09-19T03:52:23;22.20;61.00
61398;DHT22;47267;48.130;-2.040;2023-09-19T03:54:50;22.20;61.00
61398;DHT22;47267;48.130;-2.040;2023-09-19T03:57:16;22.20;61.00
61398;DHT22;47267;48.130;-2.040;2023-09-19T03:59:46;22.20;61.00
61398;DHT22;47267;48.130;-2.040;2023-09-19T04:02:12;22.20;61.00
61398;DHT22;47267;48.130;-2.040;2023-09-19T04:04:48;22.20;61.00
61398;DHT22;47267;48.130;-2.040;2023-09-19T04:07:14;22.20;61.00
61398;DHT22;47267;48.130;-2.040;2023-09-19T04:09:39;22.10;60.90
61398;DHT22;47267;48.130;-2.040;2023-09-19T04:12:05;22.20;61.00
61398;DHT22;47267;48.130;-2.040;2023-09-19T04:14:31;22.10;61.00
61398;DHT22;47267;48.130;-2.040;2023-09-19T04:16:57;22.10;60.90
61398;DHT22;47267;48.130;-2.040;2023-09-19T04:19:22;22.10;61.00
61398;DHT22;47267;48.130;-2.040;2023-09-19T04:21:48;22.10;61.00
61398;DHT22;47267;48.130;-2.040;2023-09-19T04:24:14;22.10;61.00
61398;DHT22;47267;48.130;-2.040;2023-09-19T04:26:39;22.10;61.00
61398;DHT22;47267;48.130;-2.040;2023-09-19T04:29:05;22.10;61.00
61398;DHT22;47267;48.130;-2.040;2023-09-19T04:31:31;22.00;60.90
61398;DHT22;47267;48.130;-2.040;2023-09-19T04:33:57;22.10;61.00
61398;DHT22;47267;48.130;-2.040;2023-09-19T04:36:24;22.10;61.00
61398;DHT22;47267;48.130;-2.040;2023-09-19T04:38:50;22.00;60.90
61398;DHT22;47267;48.130;-2.040;2023-09-19T04:41:16;22.00;60.90
61398;DHT22;47267;48.130;-2.040;2023-09-19T04:43:41;22.00;61.00
61398;DHT22;47267;48.130;-2.040;2023-09-19T04:46:07;22.00;61.00
61398;DHT22;47267;48.130;-2.040;2023-09-19T04:48:33;22.00;61.00
61398;DHT22;47267;48.130;-2.040;2023-09-19T04:51:00;22.00;60.90
61398;DHT22;47267;48.130;-2.040;2023-09-19T04:53:26;22.00;61.00
61398;DHT22;47267;48.130;-2.040;2023-09-19T04:55:53;21.90;60.90
61398;DHT22;47267;48.130;-2.040;2023-09-19T04:58:21;21.90;60.90
61398;DHT22;47267;48.130;-2.040;2023-09-19T05:00:47;21.90;60.90
61398;DHT22;47267;48.130;-2.040;2023-09-19T05:03:12;21.90;60.90
61398;DHT22;47267;48.130;-2.040;2023-09-19T05:05:38;21.90;60.90
61398;DHT22;47267;48.130;-2.040;2023-09-19T05:08:06;21.90;60.90
61398;DHT22;47267;48.130;-2.040;2023-09-19T05:10:34;21.90;60.90
61398;DHT22;47267;48.130;-2.040;2023-09-19T05:13:03;21.90;60.90
61398;DHT22;47267;48.130;-2.040;2023-09-19T05:15:30;21.90;60.90
61398;DHT22;47267;48.130;-2.040;2023-09-19T05:17:56;21.90;60.90
61398;DHT22;47267;48.130;-2.040;2023-09-19T05:20:22;21.80;60.90
61398;DHT22;47267;48.130;-2.040;2023-09-19T05:23:05;21.90;60.90
61398;DHT22;47267;48.130;-2.040;2023-09-19T05:25:33;21.90;60.90
61398;DHT22;47267;48.130;-2.040;2023-09-19T05:28:03;21.80;60.90
61398;DHT22;47267;48.130;-2.040;2023-09-19T05:30:32;21.90;61.00
61398;DHT22;47267;48.130;-2.040;2023-09-19T05:32:58;21.80;60.90
61398;DHT22;47267;48.130;-2.040;2023-09-19T05:35:25;21.80;60.90
61398;DHT22;47267;48.130;-2.040;2023-09-19T05:37:52;21.80;61.00
61398;DHT22;47267;48.130;-2.040;2023-09-19T05:40:19;21.80;61.00
61398;DHT22;47267;48.130;-2.040;2023-09-19T05:42:45;21.80;61.00
61398;DHT22;47267;48.130;-2.040;2023-09-19T05:45:11;21.80;61.70
61398;DHT22;47267;48.130;-2.040;2023-09-19T05:47:40;21.80;61.10
61398;DHT22;47267;48.130;-2.040;2023-09-19T05:50:11;21.80;61.10
61398;DHT22;47267;48.130;-2.040;2023-09-19T05:52:38;21.80;61.10
61398;DHT22;47267;48.130;-2.040;2023-09-19T05:55:04;21.80;61.20
61398;DHT22;47267;48.130;-2.040;2023-09-19T05:57:32;21.80;61.20
61398;DHT22;47267;48.130;-2.040;2023-09-19T05:59:58;21.80;61.20
61398;DHT22;47267;48.130;-2.040;2023-09-19T06:02:23;21.80;61.30
61398;DHT22;47267;48.130;-2.040;2023-09-19T06:04:52;21.80;61.30
61398;DHT22;47267;48.130;-2.040;2023-09-19T06:07:18;21.80;61.30
61398;DHT22;47267;48.130;-2.040;2023-09-19T06:09:44;21.70;61.20
61398;DHT22;47267;48.130;-2.040;2023-09-19T06:12:09;21.80;61.40
61398;DHT22;47267;48.130;-2.040;2023-09-19T06:14:39;21.70;61.30
61398;DHT22;47267;48.130;-2.040;2023-09-19T06:17:05;21.80;61.40
61398;DHT22;47267;48.130;-2.040;2023-09-19T06:19:31;21.70;61.40
61398;DHT22;47267;48.130;-2.040;2023-09-19T06:21:58;21.70;61.30
61398;DHT22;47267;48.130;-2.040;2023-09-19T06:24:25;21.80;61.40
61398;DHT22;47267;48.130;-2.040;2023-09-19T06:26:51;21.70;61.40
61398;DHT22;47267;48.130;-2.040;2023-09-19T06:29:18;21.70;61.40
61398;DHT22;47267;48.130;-2.040;2023-09-19T06:31:46;21.70;61.40
61398;DHT22;47267;48.130;-2.040;2023-09-19T06:34:12;21.70;61.40
61398;DHT22;47267;48.130;-2.040;2023-09-19T06:36:40;21.70;61.50
61398;DHT22;47267;48.130;-2.040;2023-09-19T06:39:06;21.70;61.40
61398;DHT22;47267;48.130;-2.040;2023-09-19T06:41:36;21.70;61.40
61398;DHT22;47267;48.130;-2.040;2023-09-19T06:44:04;21.70;61.40
61398;DHT22;47267;48.130;-2.040;2023-09-19T06:46:30;21.70;61.50
61398;DHT22;47267;48.130;-2.040;2023-09-19T06:49:00;21.70;61.50
61398;DHT22;47267;48.130;-2.040;2023-09-19T06:51:28;21.70;61.50
61398;DHT22;47267;48.130;-2.040;2023-09-19T06:53:55;21.70;61.50
61398;DHT22;47267;48.130;-2.040;2023-09-19T06:56:22;21.70;61.50
61398;DHT22;47267;48.130;-2.040;2023-09-19T06:58:50;21.70;61.50
61398;DHT22;47267;48.130;-2.040;2023-09-19T07:01:15;21.70;61.50
61398;DHT22;47267;48.130;-2.040;2023-09-19T07:03:41;21.70;61.50
61398;DHT22;47267;48.130;-2.040;2023-09-19T07:06:07;21.60;61.60
61398;DHT22;47267;48.130;-2.040;2023-09-19T07:08:34;21.60;61.50
61398;DHT22;47267;48.130;-2.040;2023-09-19T07:10:59;21.70;61.60
61398;DHT22;47267;48.130;-2.040;2023-09-19T07:13:25;21.60;61.50
61398;DHT22;47267;48.130;-2.040;2023-09-19T07:15:51;21.70;61.60
61398;DHT22;47267;48.130;-2.040;2023-09-19T07:18:17;21.70;61.60
61398;DHT22;47267;48.130;-2.040;2023-09-19T07:20:44;21.70;61.60
61398;DHT22;47267;48.130;-2.040;2023-09-19T07:23:18;21.60;61.50
61398;DHT22;47267;48.130;-2.040;2023-09-19T07:25:44;21.60;61.50
61398;DHT22;47267;48.130;-2.040;2023-09-19T07:28:09;21.60;61.60
61398;DHT22;47267;48.130;-2.040;2023-09-19T07:30:38;21.60;61.50
61398;DHT22;47267;48.130;-2.040;2023-09-19T07:33:05;21.60;61.50
61398;DHT22;47267;48.130;-2.040;2023-09-19T07:35:31;21.60;61.60
61398;DHT22;47267;48.130;-2.040;2023-09-19T07:37:57;21.60;61.60
61398;DHT22;47267;48.130;-2.040;2023-09-19T07:40:27;21.60;61.60
61398;DHT22;47267;48.130;-2.040;2023-09-19T07:42:55;21.60;61.60
61398;DHT22;47267;48.130;-2.040;2023-09-19T07:45:21;21.60;61.60
61398;DHT22;47267;48.130;-2.040;2023-09-19T07:47:50;21.60;61.60
61398;DHT22;47267;48.130;-2.040;2023-09-19T07:50:17;21.60;61.60
61398;DHT22;47267;48.130;-2.040;2023-09-19T07:52:48;21.60;61.60
61398;DHT22;47267;48.130;-2.040;2023-09-19T07:55:15;21.60;61.60
61398;DHT22;47267;48.130;-2.040;2023-09-19T07:57:45;21.60;61.60
61398;DHT22;47267;48.130;-2.040;2023-09-19T08:00:12;21.60;61.60
61398;DHT22;47267;48.130;-2.040;2023-09-19T08:02:40;21.60;61.60
61398;DHT22;47267;48.130;-2.040;2023-09-19T08:05:12;21.60;61.60
61398;DHT22;47267;48.130;-2.040;2023-09-19T08:07:42;21.60;61.60
61398;DHT22;47267;48.130;-2.040;2023-09-19T08:10:09;21.60;61.60
61398;DHT22;47267;48.130;-2.040;2023-09-19T08:12:43;21.60;61.60
61398;DHT22;47267;48.130;-2.040;2023-09-19T08:15:20;21.60;61.60
61398;DHT22;47267;48.130;-2.040;2023-09-19T08:17:46;21.60;61.60
61398;DHT22;47267;48.130;-2.040;2023-09-19T08:20:13;21.60;61.60
61398;DHT22;47267;48.130;-2.040;2023-09-19T08:22:53;21.60;61.70
61398;DHT22;47267;48.130;-2.040;2023-09-19T08:25:23;21.60;61.60
61398;DHT22;47267;48.130;-2.040;2023-09-19T08:27:50;21.60;61.60
61398;DHT22;47267;48.130;-2.040;2023-09-19T08:30:18;21.60;61.60
61398;DHT22;47267;48.130;-2.040;2023-09-19T08:32:45;21.60;61.60
61398;DHT22;47267;48.130;-2.040;2023-09-19T08:35:14;21.60;61.60
61398;DHT22;47267;48.130;-2.040;2023-09-19T08:37:41;21.60;61.60
61398;DHT22;47267;48.130;-2.040;2023-09-19T08:40:08;21.60;61.60
61398;DHT22;47267;48.130;-2.040;2023-09-19T08:42:50;21.60;61.60
61398;DHT22;47267;48.130;-2.040;2023-09-19T08:45:17;21.60;61.60
61398;DHT22;47267;48.130;-2.040;2023-09-19T08:50:28;21.60;61.70
61398;DHT22;47267;48.130;-2.040;2023-09-19T08:53:01;21.60;61.70
61398;DHT22;47267;48.130;-2.040;2023-09-19T08:55:29;21.60;61.60
61398;DHT22;47267;48.130;-2.040;2023-09-19T08:58:04;21.60;61.60
61398;DHT22;47267;48.130;-2.040;2023-09-19T09:00:32;21.60;61.60
61398;DHT22;47267;48.130;-2.040;2023-09-19T09:02:58;21.60;61.60
61398;DHT22;47267;48.130;-2.040;2023-09-19T09:05:27;21.60;61.60
61398;DHT22;47267;48.130;-2.040;2023-09-19T09:07:53;21.60;61.60
61398;DHT22;47267;48.130;-2.040;2023-09-19T09:10:22;21.60;61.70
61398;DHT22;47267;48.130;-2.040;2023-09-19T09:12:58;21.60;61.60
61398;DHT22;47267;48.130;-2.040;2023-09-19T09:15:24;21.60;61.60
61398;DHT22;47267;48.130;-2.040;2023-09-19T09:17:51;21.60;61.60
61398;DHT22;47267;48.130;-2.040;2023-09-19T09:20:19;21.60;61.60
61398;DHT22;47267;48.130;-2.040;2023-09-19T09:25:19;21.60;61.60
61398;DHT22;47267;48.130;-2.040;2023-09-19T09:27:58;21.60;61.60
61398;DHT22;47267;48.130;-2.040;2023-09-19T09:30:35;21.60;61.60
61398;DHT22;47267;48.130;-2.040;2023-09-19T09:33:12;21.60;61.60
61398;DHT22;47267;48.130;-2.040;2023-09-19T09:35:58;21.60;61.60
61398;DHT22;47267;48.130;-2.040;2023-09-19T09:38:29;21.60;61.60
61398;DHT22;47267;48.130;-2.040;2023-09-19T09:40:58;21.60;61.60
61398;DHT22;47267;48.130;-2.040;2023-09-19T09:43:27;21.60;61.60
61398;DHT22;47267;48.130;-2.040;2023-09-19T09:51:50;21.60;61.60
61398;DHT22;47267;48.130;-2.040;2023-09-19T09:55:02;21.60;61.60
61398;DHT22;47267;48.130;-2.040;2023-09-19T09:57:33;21.60;61.60
61398;DHT22;47267;48.130;-2.040;2023-09-19T10:00:00;21.60;61.60
61398;DHT22;47267;48.130;-2.040;2023-09-19T10:02:38;21.60;61.60
61398;DHT22;47267;48.130;-2.040;2023-09-19T10:05:21;21.60;61.60
61398;DHT22;47267;48.130;-2.040;2023-09-19T10:07:53;21.60;61.60
61398;DHT22;47267;48.130;-2.040;2023-09-19T10:10:33;21.60;61.60
61398;DHT22;47267;48.130;-2.040;2023-09-19T10:13:09;21.60;61.60
61398;DHT22;47267;48.130;-2.040;2023-09-19T10:15:46;21.60;61.60
61398;DHT22;47267;48.130;-2.040;2023-09-19T10:18:20;21.60;61.60
61398;DHT22;47267;48.130;-2.040;2023-09-19T10:20:46;21.60;61.60
61398;DHT22;47267;48.130;-2.040;2023-09-19T10:23:15;21.60;61.60
61398;DHT22;47267;48.130;-2.040;2023-09-19T10:25:49;21.60;61.60
61398;DHT22;47267;48.130;-2.040;2023-09-19T10:28:17;21.60;61.60
61398;DHT22;47267;48.130;-2.040;2023-09-19T10:30:49;21.60;61.60
61398;DHT22;47267;48.130;-2.040;2023-09-19T10:33:25;21.60;61.60
61398;DHT22;47267;48.130;-2.040;2023-09-19T10:35:58;21.60;61.60
61398;DHT22;47267;48.130;-2.040;2023-09-19T10:38:26;21.60;61.60
61398;DHT22;47267;48.130;-2.040;2023-09-19T10:40:55;21.60;61.60
61398;DHT22;47267;48.130;-2.040;2023-09-19T10:43:30;21.60;61.60
61398;DHT22;47267;48.130;-2.040;2023-09-19T10:46:01;21.60;61.60
61398;DHT22;47267;48.130;-2.040;2023-09-19T10:48:29;21.60;61.60
61398;DHT22;47267;48.130;-2.040;2023-09-19T10:51:07;21.60;61.70
61398;DHT22;47267;48.130;-2.040;2023-09-19T10:53:56;21.60;61.60
61398;DHT22;47267;48.130;-2.040;2023-09-19T10:56:36;21.60;61.60
61398;DHT22;47267;48.130;-2.040;2023-09-19T10:59:15;21.60;61.60
61398;DHT22;47267;48.130;-2.040;2023-09-19T11:04:33;21.60;61.60
61398;DHT22;47267;48.130;-2.040;2023-09-19T11:07:01;21.60;61.60
61398;DHT22;47267;48.130;-2.040;2023-09-19T11:09:53;21.60;61.60
61398;DHT22;47267;48.130;-2.040;2023-09-19T11:16:04;21.60;61.60
61398;DHT22;47267;48.130;-2.040;2023-09-19T11:18:58;21.60;61.60
61398;DHT22;47267;48.130;-2.040;2023-09-19T11:26:45;21.60;61.60
61398;DHT22;47267;48.130;-2.040;2023-09-19T11:31:52;21.60;61.60
61398;DHT22;47267;48.130;-2.040;2023-09-19T11:37:02;21.60;61.60
61398;DHT22;47267;48.130;-2.040;2023-09-19T11:39:30;21.70;61.70
61398;DHT22;47267;48.130;-2.040;2023-09-19T11:41:56;21.70;61.70
61398;DHT22;47267;48.130;-2.040;2023-09-19T11:44:32;21.70;61.70
61398;DHT22;47267;48.130;-2.040;2023-09-19T11:46:59;21.70;61.70
61398;DHT22;47267;48.130;-2.040;2023-09-19T11:49:30;21.70;61.70
61398;DHT22;47267;48.130;-2.040;2023-09-19T11:51:58;21.70;61.70
61398;DHT22;47267;48.130;-2.040;2023-09-19T11:54:30;21.70;61.70
61398;DHT22;47267;48.130;-2.040;2023-09-19T11:57:00;21.70;61.70
61398;DHT22;47267;48.130;-2.040;2023-09-19T11:59:38;21.70;61.70
61398;DHT22;47267;48.130;-2.040;2023-09-19T12:02:05;21.70;61.70
61398;DHT22;47267;48.130;-2.040;2023-09-19T12:04:42;21.70;61.70
61398;DHT22;47267;48.130;-2.040;2023-09-19T12:07:15;21.70;61.70
61398;DHT22;47267;48.130;-2.040;2023-09-19T12:09:45;21.70;61.60
61398;DHT22;47267;48.130;-2.040;2023-09-19T12:12:25;21.70;61.60
61398;DHT22;47267;48.130;-2.040;2023-09-19T12:14:54;21.70;61.60
61398;DHT22;47267;48.130;-2.040;2023-09-19T12:17:34;21.70;61.60
61398;DHT22;47267;48.130;-2.040;2023-09-19T12:20:01;21.70;61.60
61398;DHT22;47267;48.130;-2.040;2023-09-19T12:22:40;21.70;61.60
61398;DHT22;47267;48.130;-2.040;2023-09-19T12:25:09;21.70;61.60
61398;DHT22;47267;48.130;-2.040;2023-09-19T12:27:49;21.80;61.60
61398;DHT22;47267;48.130;-2.040;2023-09-19T12:30:18;21.80;61.60
61398;DHT22;47267;48.130;-2.040;2023-09-19T12:32:46;21.80;61.60
61398;DHT22;47267;48.130;-2.040;2023-09-19T12:35:32;21.80;61.60
61398;DHT22;47267;48.130;-2.040;2023-09-19T12:38:02;21.80;61.60
61398;DHT22;47267;48.130;-2.040;2023-09-19T12:40:29;21.80;61.60
61398;DHT22;47267;48.130;-2.040;2023-09-19T12:42:59;21.80;61.60
61398;DHT22;47267;48.130;-2.040;2023-09-19T12:45:26;21.80;61.60
61398;DHT22;47267;48.130;-2.040;2023-09-19T12:48:24;21.80;61.60
61398;DHT22;47267;48.130;-2.040;2023-09-19T12:51:03;21.80;61.60
61398;DHT22;47267;48.130;-2.040;2023-09-19T12:53:44;21.80;61.60
61398;DHT22;47267;48.130;-2.040;2023-09-19T12:56:12;21.80;61.60
61398;DHT22;47267;48.130;-2.040;2023-09-19T12:58:55;21.80;61.50
61398;DHT22;47267;48.130;-2.040;2023-09-19T13:01:22;21.80;61.60
61398;DHT22;47267;48.130;-2.040;2023-09-19T13:04:19;21.80;61.50
61398;DHT22;47267;48.130;-2.040;2023-09-19T13:06:46;21.80;61.50
61398;DHT22;47267;48.130;-2.040;2023-09-19T13:09:14;21.80;61.50
61398;DHT22;47267;48.130;-2.040;2023-09-19T13:11:41;21.80;61.50
61398;DHT22;47267;48.130;-2.040;2023-09-19T13:14:23;21.80;61.50
61398;DHT22;47267;48.130;-2.040;2023-09-19T13:19:48;21.80;61.50
61398;DHT22;47267;48.130;-2.040;2023-09-19T13:22:40;21.90;61.50
61398;DHT22;47267;48.130;-2.040;2023-09-19T13:25:13;21.90;61.60
61398;DHT22;47267;48.130;-2.040;2023-09-19T13:27:45;21.90;61.50
61398;DHT22;47267;48.130;-2.040;2023-09-19T13:30:12;21.90;61.50
61398;DHT22;47267;48.130;-2.040;2023-09-19T13:32:38;21.90;61.50
61398;DHT22;47267;48.130;-2.040;2023-09-19T13:35:06;21.90;61.50
61398;DHT22;47267;48.130;-2.040;2023-09-19T13:37:35;21.90;61.50
61398;DHT22;47267;48.130;-2.040;2023-09-19T13:40:08;21.90;61.50
61398;DHT22;47267;48.130;-2.040;2023-09-19T13:42:34;21.90;61.50
61398;DHT22;47267;48.130;-2.040;2023-09-19T13:45:02;21.90;61.40
61398;DHT22;47267;48.130;-2.040;2023-09-19T13:47:29;21.90;61.50
61398;DHT22;47267;48.130;-2.040;2023-09-19T13:49:54;21.90;61.40
61398;DHT22;47267;48.130;-2.040;2023-09-19T13:52:20;21.90;61.40
61398;DHT22;47267;48.130;-2.040;2023-09-19T13:54:49;21.90;61.40
61398;DHT22;47267;48.130;-2.040;2023-09-19T13:57:16;21.90;61.40
61398;DHT22;47267;48.130;-2.040;2023-09-19T13:59:42;21.90;61.40
61398;DHT22;47267;48.130;-2.040;2023-09-19T14:02:07;22.00;61.40
61398;DHT22;47267;48.130;-2.040;2023-09-19T14:04:33;22.00;61.40
61398;DHT22;47267;48.130;-2.040;2023-09-19T14:07:02;22.00;61.40
61398;DHT22;47267;48.130;-2.040;2023-09-19T14:09:29;22.00;61.40
61398;DHT22;47267;48.130;-2.040;2023-09-19T14:11:54;22.00;61.40
61398;DHT22;47267;48.130;-2.040;2023-09-19T14:14:20;22.00;61.40
61398;DHT22;47267;48.130;-2.040;2023-09-19T14:16:47;22.00;61.40
61398;DHT22;47267;48.130;-2.040;2023-09-19T14:19:13;22.00;61.40
61398;DHT22;47267;48.130;-2.040;2023-09-19T14:21:40;22.00;61.40
61398;DHT22;47267;48.130;-2.040;2023-09-19T14:24:06;22.00;61.40
61398;DHT22;47267;48.130;-2.040;2023-09-19T14:26:38;22.00;61.40
61398;DHT22;47267;48.130;-2.040;2023-09-19T14:29:03;22.00;61.40
61398;DHT22;47267;48.130;-2.040;2023-09-19T14:31:29;22.00;61.30
61398;DHT22;47267;48.130;-2.040;2023-09-19T14:33:55;22.00;61.40
61398;DHT22;47267;48.130;-2.040;2023-09-19T14:36:25;22.00;61.30
61398;DHT22;47267;48.130;-2.040;2023-09-19T14:38:54;22.00;61.40
61398;DHT22;47267;48.130;-2.040;2023-09-19T14:41:20;22.10;61.40
61398;DHT22;47267;48.130;-2.040;2023-09-19T14:43:46;22.10;61.30
61398;DHT22;47267;48.130;-2.040;2023-09-19T14:46:12;22.10;61.40
61398;DHT22;47267;48.130;-2.040;2023-09-19T14:48:39;22.10;61.40
61398;DHT22;47267;48.130;-2.040;2023-09-19T14:51:06;22.10;61.40
61398;DHT22;47267;48.130;-2.040;2023-09-19T14:53:35;22.10;61.30
61398;DHT22;47267;48.130;-2.040;2023-09-19T14:56:13;22.10;61.30
61398;DHT22;47267;48.130;-2.040;2023-09-19T14:58:43;22.10;61.30
61398;DHT22;47267;48.130;-2.040;2023-09-19T15:01:10;22.10;61.30
61398;DHT22;47267;48.130;-2.040;2023-09-19T15:03:37;22.10;61.30
61398;DHT22;47267;48.130;-2.040;2023-09-19T15:06:06;22.10;61.30
61398;DHT22;47267;48.130;-2.040;2023-09-19T15:08:36;22.10;61.30
61398;DHT22;47267;48.130;-2.040;2023-09-19T15:11:04;22.10;61.30
61398;DHT22;47267;48.130;-2.040;2023-09-19T15:13:34;22.20;61.30
61398;DHT22;47267;48.130;-2.040;2023-09-19T15:16:01;22.20;61.30
61398;DHT22;47267;48.130;-2.040;2023-09-19T15:18:28;22.20;61.40
61398;DHT22;47267;48.130;-2.040;2023-09-19T15:20:55;22.20;61.30
61398;DHT22;47267;48.130;-2.040;2023-09-19T15:23:21;22.20;61.30
61398;DHT22;47267;48.130;-2.040;2023-09-19T15:25:50;22.20;61.30
61398;DHT22;47267;48.130;-2.040;2023-09-19T15:28:16;22.20;61.30
61398;DHT22;47267;48.130;-2.040;2023-09-19T15:30:41;22.20;61.30
61398;DHT22;47267;48.130;-2.040;2023-09-19T15:33:07;22.20;61.30
61398;DHT22;47267;48.130;-2.040;2023-09-19T15:35:33;22.20;61.30
61398;DHT22;47267;48.130;-2.040;2023-09-19T15:37:58;22.20;61.30
61398;DHT22;47267;48.130;-2.040;2023-09-19T15:40:26;22.20;61.30
61398;DHT22;47267;48.130;-2.040;2023-09-19T15:42:54;22.20;61.30
61398;DHT22;47267;48.130;-2.040;2023-09-19T15:45:19;22.20;61.30
61398;DHT22;47267;48.130;-2.040;2023-09-19T15:47:45;22.20;61.20
61398;DHT22;47267;48.130;-2.040;2023-09-19T15:50:11;22.20;61.30
61398;DHT22;47267;48.130;-2.040;2023-09-19T15:52:41;22.20;61.30
61398;DHT22;47267;48.130;-2.040;2023-09-19T15:55:07;22.20;61.20
61398;DHT22;47267;48.130;-2.040;2023-09-19T15:57:34;22.20;61.20
61398;DHT22;47267;48.130;-2.040;2023-09-19T15:59:59;22.20;61.20
61398;DHT22;47267;48.130;-2.040;2023-09-19T16:02:25;22.20;61.20
61398;DHT22;47267;48.130;-2.040;2023-09-19T16:04:54;22.30;61.30
61398;DHT22;47267;48.130;-2.040;2023-09-19T16:07:19;22.30;61.30
61398;DHT22;47267;48.130;-2.040;2023-09-19T16:09:45;22.20;61.20
61398;DHT22;47267;48.130;-2.040;2023-09-19T16:12:11;22.30;61.20
61398;DHT22;47267;48.130;-2.040;2023-09-19T16:14:39;22.30;61.20
61398;DHT22;47267;48.130;-2.040;2023-09-19T16:17:05;22.30;61.20